createdAt,value
2018-08-05T00:01:16.931Z,12.00
2018-08-05T00:03:44.745Z,11.43
2018-08-05T00:06:12.425Z,10.57
2018-08-05T00:08:40.172Z,11.23
2018-08-05T00:11:07.918Z,10.97
2018-08-05T00:13:35.663Z,10.70
2018-08-05T00:16:03.435Z,10.47
2018-08-05T00:18:31.206Z,11.03
2018-08-05T00:20:58.862Z,10.47
2018-08-05T00:23:26.623Z,10.40
2018-08-05T00:25:54.315Z,9.27
2018-08-05T00:28:22.044Z,11.77
2018-08-05T00:30:49.700Z,9.90
2018-08-05T00:33:17.502Z,10.30
2018-08-05T00:35:45.168Z,10.60
2018-08-05T00:38:12.948Z,10.70
2018-08-05T00:40:40.629Z,10.97
2018-08-05T00:43:08.364Z,10.20
2018-08-05T00:45:36.178Z,10.23
2018-08-05T00:48:03.854Z,9.37
2018-08-05T00:50:31.482Z,10.53
2018-08-05T00:52:59.240Z,11.07
2018-08-05T00:55:26.929Z,10.97
2018-08-05T00:57:54.710Z,10.77
2018-08-05T01:00:22.468Z,9.60
2018-08-05T01:02:50.268Z,9.07
2018-08-05T01:05:17.995Z,9.43
2018-08-05T01:07:45.780Z,9.90
2018-08-05T01:10:13.526Z,10.10
2018-08-05T01:12:41.316Z,10.23
2018-08-05T01:15:10.938Z,9.90
2018-08-05T01:17:38.665Z,9.90
2018-08-05T01:20:06.919Z,10.97
2018-08-05T01:22:34.753Z,9.87
2018-08-05T01:25:02.544Z,9.57
2018-08-05T01:27:30.196Z,9.57
2018-08-05T01:29:57.911Z,9.30
2018-08-05T01:32:25.675Z,9.17
2018-08-05T01:34:53.349Z,9.90
2018-08-05T01:37:21.082Z,8.70
2018-08-05T01:39:48.936Z,9.77
2018-08-05T01:42:16.701Z,9.70
2018-08-05T01:44:44.439Z,8.87
2018-08-05T01:47:12.115Z,8.77
2018-08-05T01:49:39.852Z,9.00
2018-08-05T01:52:07.607Z,9.40
2018-08-05T01:54:35.244Z,9.10
2018-08-05T01:57:03.036Z,8.60
2018-08-05T01:59:30.662Z,8.63
2018-08-05T02:01:58.490Z,8.67
2018-08-05T02:04:26.151Z,7.30
2018-08-05T02:06:53.931Z,7.83
2018-08-05T02:09:21.559Z,8.37
2018-08-05T02:11:49.342Z,7.77
2018-08-05T02:14:17.026Z,8.07
2018-08-05T02:16:44.790Z,7.90
2018-08-05T02:19:12.406Z,7.57
2018-08-05T02:21:40.057Z,7.80
2018-08-05T02:24:07.820Z,7.53
2018-08-05T02:26:35.496Z,7.50
2018-08-05T02:29:03.288Z,7.90
2018-08-05T02:31:30.955Z,7.70
2018-08-05T02:33:58.683Z,7.13
2018-08-05T02:36:26.335Z,7.10
2018-08-05T02:38:54.062Z,7.77
2018-08-05T02:41:21.715Z,6.70
2018-08-05T02:43:49.671Z,6.37
2018-08-05T02:46:17.341Z,7.57
2018-08-05T02:48:45.128Z,8.23
2018-08-05T02:51:12.789Z,6.80
2018-08-05T02:53:40.545Z,7.07
2018-08-05T02:56:08.179Z,7.70
2018-08-05T02:58:35.911Z,7.33
2018-08-05T03:01:03.629Z,6.63
2018-08-05T03:03:31.434Z,8.33
2018-08-05T03:05:59.075Z,6.63
2018-08-05T03:08:26.811Z,7.80
2018-08-05T03:10:54.456Z,7.00
2018-08-05T03:13:22.128Z,6.93
2018-08-05T03:15:49.887Z,7.43
2018-08-05T03:18:17.552Z,7.63
2018-08-05T03:20:45.283Z,7.50
2018-08-05T03:23:12.956Z,6.80
2018-08-05T03:25:40.720Z,6.40
2018-08-05T03:28:08.343Z,6.87
2018-08-05T03:30:36.088Z,7.27
2018-08-05T03:33:03.803Z,7.00
2018-08-05T03:35:31.535Z,7.53
2018-08-05T03:37:59.179Z,8.00
2018-08-05T03:40:26.918Z,7.00
2018-08-05T03:42:54.539Z,7.73
2018-08-05T03:45:22.211Z,7.50
2018-08-05T03:47:49.931Z,7.00
2018-08-05T03:50:17.647Z,7.67
2018-08-05T03:52:45.294Z,7.33
2018-08-05T03:55:12.931Z,7.33
2018-08-05T03:57:40.631Z,6.57
2018-08-05T04:00:08.736Z,6.87
2018-08-05T04:02:36.595Z,6.67
2018-08-05T04:05:04.412Z,6.93
2018-08-05T04:07:32.148Z,7.50
2018-08-05T04:09:59.798Z,7.57
2018-08-05T04:12:27.515Z,6.37
2018-08-05T04:14:55.147Z,6.30
2018-08-05T04:17:22.782Z,7.07
2018-08-05T04:19:50.513Z,6.30
2018-08-05T04:22:18.275Z,6.43
2018-08-05T04:24:45.902Z,6.13
2018-08-05T04:27:13.613Z,6.90
2018-08-05T04:29:41.336Z,6.60
2018-08-05T04:32:10.216Z,6.40
2018-08-05T04:34:40.027Z,6.40
2018-08-05T04:37:10.789Z,6.50
2018-08-05T04:39:40.612Z,6.47
2018-08-05T04:42:11.475Z,5.80
2018-08-05T04:44:47.843Z,6.70
2018-08-05T04:47:17.461Z,5.27
2018-08-05T04:49:53.072Z,6.50
2018-08-05T04:52:22.043Z,6.10
2018-08-05T04:54:50.124Z,6.83
2018-08-05T04:57:19.138Z,6.00
2018-08-05T04:59:51.270Z,5.87
2018-08-05T05:02:22.842Z,5.90
2018-08-05T05:04:52.335Z,6.33
2018-08-05T05:07:22.460Z,5.70
2018-08-05T05:09:50.862Z,5.53
2018-08-05T05:12:19.209Z,4.77
2018-08-05T05:14:52.197Z,5.00
2018-08-05T05:17:24.207Z,4.50
2018-08-05T05:19:56.064Z,5.30
2018-08-05T05:22:25.018Z,5.50
2018-08-05T05:24:54.823Z,4.60
2018-08-05T05:27:26.104Z,5.07
2018-08-05T05:29:58.172Z,4.57
2018-08-05T05:32:29.752Z,5.13
2018-08-05T05:34:59.084Z,5.00
2018-08-05T05:37:28.141Z,5.00
2018-08-05T05:39:56.862Z,4.73
2018-08-05T05:42:25.304Z,4.83
2018-08-05T05:44:53.350Z,4.63
2018-08-05T05:47:22.035Z,4.50
2018-08-05T05:49:52.326Z,4.83
2018-08-05T05:52:21.242Z,4.43
2018-08-05T05:54:51.701Z,4.10
2018-08-05T05:57:25.117Z,4.80
2018-08-05T05:59:55.084Z,4.33
2018-08-05T06:02:24.789Z,4.53
2018-08-05T06:04:52.815Z,4.67
2018-08-05T06:07:20.638Z,4.50
2018-08-05T06:09:48.306Z,4.80
2018-08-05T06:12:16.136Z,4.60
2018-08-05T06:14:43.974Z,4.67
2018-08-05T06:17:11.663Z,4.77
2018-08-05T06:19:39.450Z,5.53
2018-08-05T06:22:07.255Z,4.30
2018-08-05T06:24:35.047Z,4.50
2018-08-05T06:27:02.772Z,4.67
2018-08-05T06:29:30.631Z,5.13
2018-08-05T06:31:59.803Z,4.97
2018-08-05T06:34:27.622Z,4.63
2018-08-05T06:36:55.269Z,4.90
2018-08-05T06:39:23.007Z,4.83
2018-08-05T06:41:50.619Z,4.83
2018-08-05T06:44:18.372Z,3.93
2018-08-05T06:46:46.064Z,4.63
2018-08-05T06:49:13.786Z,4.30
2018-08-05T06:51:41.411Z,6.13
2018-08-05T06:54:09.105Z,4.33
2018-08-05T06:56:36.861Z,4.20
2018-08-05T06:59:04.564Z,4.80
2018-08-05T07:01:32.316Z,4.07
2018-08-05T07:04:00.087Z,4.10
2018-08-05T07:06:27.917Z,4.30
2018-08-05T07:08:55.539Z,4.50
2018-08-05T07:11:23.321Z,4.07
2018-08-05T07:13:51.020Z,4.27
2018-08-05T07:16:18.772Z,4.67
2018-08-05T07:18:46.438Z,5.50
2018-08-05T07:21:14.184Z,4.03
2018-08-05T07:23:41.816Z,3.70
2018-08-05T07:26:09.525Z,4.37
2018-08-05T07:28:37.221Z,7.03
2018-08-05T07:31:04.921Z,3.60
2018-08-05T07:33:33.511Z,4.13
2018-08-05T07:36:01.176Z,6.03
2018-08-05T07:38:28.905Z,4.53
2018-08-05T07:40:56.548Z,4.03
2018-08-05T07:43:24.579Z,4.10
2018-08-05T07:45:52.235Z,4.63
2018-08-05T07:48:20.226Z,4.50
2018-08-05T07:50:47.934Z,4.50
2018-08-05T07:53:15.691Z,3.90
2018-08-05T07:55:43.327Z,6.57
2018-08-05T07:58:11.127Z,4.30
2018-08-05T08:00:39.002Z,4.50
2018-08-05T08:03:06.974Z,4.90
2018-08-05T08:05:34.840Z,4.80
2018-08-05T08:08:02.491Z,4.67
2018-08-05T08:11:09.123Z,4.20
2018-08-05T08:16:53.453Z,4.83
2018-08-05T08:19:21.201Z,6.00
2018-08-05T08:21:48.872Z,5.33
2018-08-05T08:24:17.264Z,4.40
2018-08-05T08:26:56.049Z,4.77
2018-08-05T08:29:24.200Z,6.03
2018-08-05T08:34:31.369Z,5.37
2018-08-05T08:37:04.727Z,5.13
2018-08-05T08:39:38.284Z,5.20
2018-08-05T08:42:05.922Z,4.50
2018-08-05T08:44:33.611Z,6.03
2018-08-05T08:47:01.375Z,4.80
2018-08-05T08:49:29.169Z,4.20
2018-08-05T08:52:00.589Z,5.13
2018-08-05T08:54:28.997Z,4.60
2018-08-05T08:56:56.838Z,8.73
2018-08-05T08:59:24.520Z,5.30
2018-08-05T09:01:52.294Z,4.80
2018-08-05T09:04:20.064Z,4.90
2018-08-05T09:06:47.889Z,4.70
2018-08-05T09:09:15.558Z,4.53
2018-08-05T09:11:45.404Z,4.80
2018-08-05T09:14:16.727Z,4.43
2018-08-05T09:16:49.058Z,5.00
2018-08-05T09:19:23.015Z,4.20
2018-08-05T09:21:50.783Z,5.10
2018-08-05T09:24:18.523Z,4.40
2018-08-05T09:26:46.225Z,4.57
2018-08-05T09:29:13.974Z,4.93
2018-08-05T09:31:41.680Z,4.80
2018-08-05T09:34:09.427Z,4.70
2018-08-05T09:36:37.091Z,4.70
2018-08-05T09:39:07.367Z,4.50
2018-08-05T09:41:35.068Z,5.27
2018-08-05T09:44:07.385Z,4.33
2018-08-05T09:46:35.135Z,4.67
2018-08-05T09:49:46.181Z,4.43
2018-08-05T09:52:13.876Z,4.43
2018-08-05T09:54:41.638Z,4.50
2018-08-05T09:57:09.367Z,3.87
2018-08-05T09:59:37.084Z,4.23
2018-08-05T10:02:04.871Z,4.03
2018-08-05T10:04:32.648Z,3.97
2018-08-05T10:07:00.409Z,3.57
2018-08-05T10:09:28.107Z,3.50
2018-08-05T10:11:55.899Z,3.20
2018-08-05T10:14:23.687Z,4.20
2018-08-05T10:16:51.432Z,3.77
2018-08-05T10:19:19.119Z,3.60
2018-08-05T10:21:46.868Z,4.67
2018-08-05T10:24:14.527Z,3.70
2018-08-05T10:26:42.268Z,4.40
2018-08-05T10:29:10.522Z,4.20
2018-08-05T10:31:38.415Z,3.73
2018-08-05T10:34:06.405Z,3.13
2018-08-05T10:36:34.137Z,3.60
2018-08-05T10:39:02.062Z,3.80
2018-08-05T10:41:30.000Z,3.83
2018-08-05T10:43:57.707Z,3.63
2018-08-05T10:46:25.539Z,3.60
2018-08-05T10:48:53.270Z,5.10
2018-08-05T10:51:21.073Z,3.60
2018-08-05T10:53:48.777Z,3.50
2018-08-05T10:56:16.615Z,3.30
2018-08-05T10:58:44.327Z,3.67
2018-08-05T11:01:12.130Z,5.50
2018-08-05T11:03:39.958Z,3.93
2018-08-05T11:06:07.730Z,3.50
2018-08-05T11:08:35.496Z,2.90
2018-08-05T11:11:03.212Z,2.97
2018-08-05T11:13:31.032Z,2.53
2018-08-05T11:15:58.713Z,3.03
2018-08-05T11:18:26.491Z,3.17
2018-08-05T11:20:54.185Z,2.90
2018-08-05T11:23:21.951Z,3.03
2018-08-05T11:25:49.671Z,3.30
2018-08-05T11:28:17.447Z,3.27
2018-08-05T11:30:46.660Z,3.43
2018-08-05T11:33:14.717Z,3.50
2018-08-05T11:35:46.505Z,3.30
2018-08-05T11:38:35.670Z,3.80
2018-08-05T11:41:24.154Z,4.30
2018-08-05T11:43:53.258Z,3.23
2018-08-05T11:46:21.520Z,3.07
2018-08-05T11:48:49.408Z,3.50
2018-08-05T12:13:25.237Z,3.80
2018-08-05T12:15:53.935Z,2.80
2018-08-05T12:18:24.989Z,3.30
2018-08-05T12:20:55.545Z,2.77
2018-08-05T12:23:27.880Z,2.70
2018-08-05T12:25:58.240Z,3.47
2018-08-05T12:28:28.355Z,3.10
2018-08-05T12:30:59.636Z,2.80
2018-08-05T12:33:32.691Z,3.13
2018-08-05T12:36:02.780Z,3.03
2018-08-05T12:38:36.066Z,3.27
2018-08-05T12:41:09.019Z,3.13
2018-08-05T12:43:40.312Z,2.83
2018-08-05T12:46:10.024Z,2.87
2018-08-05T12:48:41.911Z,2.70
2018-08-05T12:51:12.178Z,3.50
2018-08-05T12:59:36.034Z,2.97
2018-08-05T13:04:42.946Z,3.10
2018-08-05T13:07:15.025Z,4.73
2018-08-05T13:09:45.946Z,3.50
2018-08-05T13:12:18.150Z,2.97
2018-08-05T13:14:51.299Z,4.07
2018-08-05T13:17:21.113Z,2.73
2018-08-05T13:19:51.996Z,3.10
2018-08-05T13:22:22.696Z,3.20
2018-08-05T13:27:33.880Z,3.83
2018-08-05T13:30:06.390Z,2.93
2018-08-05T13:32:38.087Z,3.10
2018-08-05T13:35:07.000Z,3.17
2018-08-05T13:37:37.492Z,3.43
2018-08-05T13:40:10.071Z,3.07
2018-08-05T13:42:39.451Z,2.73
2018-08-05T13:45:12.232Z,3.20
2018-08-05T13:47:43.998Z,2.83
2018-08-05T13:50:18.538Z,3.50
2018-08-05T13:52:49.466Z,3.30
2018-08-05T13:55:21.838Z,2.83
2018-08-05T13:57:56.823Z,2.77
2018-08-05T14:00:29.811Z,3.10
2018-08-05T14:03:01.463Z,3.40
2018-08-05T14:05:35.524Z,3.63
2018-08-05T14:08:12.415Z,2.50
2018-08-05T14:10:44.443Z,2.90
2018-08-05T14:13:16.515Z,3.00
2018-08-05T14:15:50.115Z,2.80
2018-08-05T14:18:26.012Z,3.40
2018-08-05T14:21:00.931Z,3.17
2018-08-05T14:23:30.765Z,3.00
2018-08-05T14:25:59.504Z,3.10
2018-08-05T14:28:32.392Z,2.90
2018-08-05T14:31:04.288Z,4.47
2018-08-05T14:33:36.499Z,2.93
2018-08-05T14:36:11.756Z,3.13
2018-08-05T14:38:45.159Z,3.23
2018-08-05T14:41:14.789Z,2.67
2018-08-05T14:43:46.585Z,2.97
2018-08-05T14:46:16.434Z,3.83
2018-08-05T14:48:48.763Z,3.10
2018-08-05T14:51:19.440Z,3.37
2018-08-05T14:53:53.572Z,3.03
2018-08-05T14:56:29.589Z,2.67
2018-08-05T14:59:08.965Z,2.80
2018-08-05T15:01:48.011Z,2.97
2018-08-05T15:04:22.748Z,3.00
2018-08-05T15:06:59.772Z,3.03
2018-08-05T15:09:32.920Z,2.80
2018-08-05T15:12:09.551Z,4.50
2018-08-05T15:14:48.155Z,2.37
2018-08-05T15:17:25.528Z,2.90
2018-08-05T15:20:07.277Z,2.80
2018-08-05T15:22:44.327Z,3.23
2018-08-05T15:25:23.532Z,3.00
2018-08-05T15:28:03.218Z,2.77
2018-08-05T15:30:40.284Z,2.90
2018-08-05T15:33:16.407Z,2.97
2018-08-05T15:35:53.774Z,2.97
2018-08-05T15:38:26.913Z,3.37
2018-08-05T15:41:03.555Z,3.07
2018-08-05T15:43:37.127Z,3.03
2018-08-05T15:46:12.922Z,3.30
2018-08-05T15:48:45.592Z,2.60
2018-08-05T15:51:21.388Z,2.70
2018-08-05T15:53:58.919Z,2.80
2018-08-05T15:56:34.178Z,3.43
2018-08-05T15:59:12.420Z,3.13
2018-08-05T16:01:47.989Z,2.50
2018-08-05T16:04:23.501Z,2.60
2018-08-05T16:07:00.251Z,3.13
2018-08-05T16:09:37.630Z,2.50
2018-08-05T16:12:13.338Z,2.60
2018-08-05T16:14:52.196Z,5.43
2018-08-05T16:17:30.944Z,3.10
2018-08-05T16:20:08.962Z,2.83
2018-08-05T16:22:44.595Z,3.20
2018-08-05T16:25:21.598Z,2.90
2018-08-05T16:27:57.716Z,3.63
2018-08-05T16:30:35.641Z,3.43
2018-08-05T16:33:11.792Z,2.50
2018-08-05T16:35:46.312Z,3.73
2018-08-05T16:38:25.041Z,2.60
2018-08-05T16:41:01.888Z,2.87
2018-08-05T16:43:36.890Z,3.00
2018-08-05T16:46:14.511Z,2.50
2018-08-05T16:48:53.582Z,2.93
2018-08-05T16:51:30.572Z,2.73
2018-08-05T16:54:06.128Z,2.63
2018-08-05T16:56:44.614Z,2.83
2018-08-05T16:59:23.841Z,2.87
2018-08-05T17:02:01.858Z,3.07
2018-08-05T17:04:39.564Z,2.70
2018-08-05T17:07:12.582Z,2.80
2018-08-05T17:09:49.106Z,3.00
2018-08-05T17:12:26.948Z,2.80
2018-08-05T17:15:06.877Z,3.97
2018-08-05T17:17:45.687Z,2.27
2018-08-05T17:20:21.829Z,2.63
2018-08-05T17:22:55.292Z,3.00
2018-08-05T17:25:28.641Z,2.43
2018-08-05T17:28:00.368Z,2.63
2018-08-05T17:30:31.998Z,2.60
2018-08-05T17:33:03.474Z,2.87
2018-08-05T17:35:35.191Z,3.10
2018-08-05T17:38:08.836Z,2.57
2018-08-05T17:40:42.136Z,2.13
2018-08-05T17:43:15.319Z,2.97
2018-08-05T17:45:46.764Z,2.30
2018-08-05T17:48:19.289Z,2.30
2018-08-05T17:50:53.709Z,2.30
2018-08-05T17:53:24.481Z,2.43
2018-08-05T17:55:56.059Z,4.80
2018-08-05T17:58:27.464Z,2.20
2018-08-05T18:00:59.994Z,2.20
2018-08-05T18:03:32.248Z,2.60
2018-08-05T18:06:08.708Z,2.47
2018-08-05T18:08:41.411Z,2.67
2018-08-05T18:11:13.258Z,2.40
2018-08-05T18:13:49.445Z,2.33
2018-08-05T18:16:20.044Z,4.20
2018-08-05T18:18:53.046Z,2.47
2018-08-05T18:21:23.699Z,2.30
2018-08-05T18:23:51.503Z,2.40
2018-08-05T18:26:22.326Z,2.27
2018-08-05T18:28:57.919Z,2.60
2018-08-05T18:34:16.801Z,2.00
2018-08-05T18:36:44.707Z,2.60
2018-08-05T18:39:23.446Z,2.47
2018-08-05T18:41:57.099Z,2.93
2018-08-05T18:44:26.308Z,2.40
2018-08-05T18:46:57.537Z,2.33
2018-08-05T18:49:36.689Z,3.63
2018-08-05T18:52:05.266Z,2.23
2018-08-05T18:54:40.373Z,3.33
2018-08-05T18:57:13.945Z,2.50
2018-08-05T18:59:45.964Z,3.33
2018-08-05T19:02:22.210Z,2.57
2018-08-05T19:04:50.078Z,2.70
2018-08-05T19:07:17.869Z,2.37
2018-08-05T19:09:45.592Z,2.40
2018-08-05T19:12:13.345Z,2.43
2018-08-05T19:14:41.051Z,2.30
2018-08-05T19:17:08.866Z,2.40
2018-08-05T19:19:36.564Z,2.53
2018-08-05T19:22:04.429Z,2.80
2018-08-05T19:24:32.794Z,2.20
2018-08-05T19:27:00.453Z,2.57
2018-08-05T19:29:28.269Z,2.20
2018-08-05T19:31:55.942Z,2.87
2018-08-05T19:34:30.293Z,2.40
2018-08-05T19:36:58.059Z,2.53
2018-08-05T19:39:25.961Z,2.40
2018-08-05T19:41:53.665Z,2.40
2018-08-05T19:44:21.419Z,3.10
2018-08-05T19:46:49.152Z,3.00
2018-08-05T19:49:18.003Z,2.57
2018-08-05T19:51:46.481Z,3.00
2018-08-05T19:54:15.237Z,3.93
2018-08-05T19:56:43.286Z,3.30
2018-08-05T19:59:14.219Z,3.20
2018-08-05T20:01:44.700Z,3.10
2018-08-05T20:04:14.244Z,2.60
2018-08-05T20:06:42.529Z,3.20
2018-08-05T20:09:12.175Z,2.50
2018-08-05T20:11:41.689Z,2.77
2018-08-05T20:14:12.408Z,2.50
2018-08-05T20:16:44.364Z,2.87
2018-08-05T20:19:15.724Z,2.50
2018-08-05T20:21:44.423Z,2.50
2018-08-05T20:24:13.428Z,2.43
2018-08-05T20:26:44.401Z,2.83
2018-08-05T20:29:13.684Z,2.57
2018-08-05T20:31:43.253Z,2.80
2018-08-05T20:34:13.190Z,2.10
2018-08-05T20:36:42.673Z,3.53
2018-08-05T20:39:13.545Z,2.40
2018-08-05T20:41:43.706Z,3.90
2018-08-05T20:44:14.142Z,2.50
2018-08-05T20:46:43.529Z,2.60
2018-08-05T20:49:14.590Z,2.60
2018-08-05T20:51:44.592Z,3.00
2018-08-05T20:54:15.723Z,2.30
2018-08-05T20:56:44.499Z,2.60
2018-08-05T20:59:14.515Z,3.30
2018-08-05T21:01:43.718Z,2.90
2018-08-05T21:04:12.217Z,2.57
2018-08-05T21:06:41.820Z,2.40
2018-08-05T21:09:14.756Z,4.67
2018-08-05T21:11:43.040Z,2.93
2018-08-05T21:14:11.660Z,2.67
2018-08-05T21:16:40.967Z,3.00
2018-08-05T21:19:09.152Z,2.57
2018-08-05T21:21:49.911Z,4.27
2018-08-05T21:24:21.995Z,3.10
2018-08-05T21:26:50.593Z,2.33
2018-08-05T21:29:20.020Z,2.83
2018-08-05T21:31:55.078Z,2.53
2018-08-05T21:34:23.181Z,3.30
2018-08-05T21:36:51.039Z,2.63
2018-08-05T21:39:20.185Z,2.30
2018-08-05T21:41:48.104Z,2.70
2018-08-05T21:44:16.048Z,2.23
2018-08-05T21:46:43.817Z,2.63
2018-08-05T21:49:11.941Z,2.13
2018-08-05T21:51:40.543Z,2.50
2018-08-05T21:54:08.733Z,2.77
2018-08-05T21:56:37.546Z,2.30
2018-08-05T21:59:07.856Z,3.30
2018-08-05T22:01:38.644Z,3.10
2018-08-05T22:04:07.737Z,2.40
2018-08-05T22:06:36.873Z,3.47
2018-08-05T22:11:43.520Z,2.57
2018-08-05T22:14:12.173Z,2.97
2018-08-05T22:16:42.596Z,2.83
2018-08-05T22:19:12.299Z,2.60
2018-08-05T22:21:41.100Z,3.20
2018-08-05T22:24:10.269Z,2.70
2018-08-05T22:26:39.697Z,3.93
2018-08-05T22:29:10.087Z,2.63
2018-08-05T22:31:38.525Z,2.90
2018-08-05T22:34:06.628Z,2.93
2018-08-05T22:36:35.287Z,2.93
2018-08-05T22:39:04.150Z,3.83
2018-08-05T22:41:34.362Z,3.50
2018-08-05T22:44:03.223Z,3.00
2018-08-05T22:46:31.291Z,2.83
2018-08-05T22:49:07.844Z,2.80
2018-08-05T22:51:37.541Z,2.97
2018-08-05T22:54:06.735Z,3.10
2018-08-05T22:56:36.457Z,3.40
2018-08-05T22:59:06.232Z,2.80
2018-08-05T23:01:36.731Z,2.83
2018-08-05T23:04:06.630Z,2.80
2018-08-05T23:06:35.139Z,3.20
2018-08-05T23:09:04.359Z,2.40
2018-08-05T23:11:34.616Z,2.93
2018-08-05T23:14:04.152Z,2.70
2018-08-05T23:16:33.167Z,5.00
2018-08-05T23:19:03.427Z,2.77
2018-08-05T23:21:33.147Z,2.60
2018-08-05T23:24:02.610Z,3.00
2018-08-05T23:26:31.115Z,2.80
2018-08-05T23:28:59.547Z,3.00
2018-08-05T23:31:28.496Z,2.63
2018-08-05T23:33:57.769Z,2.73
2018-08-05T23:36:27.009Z,2.83
2018-08-05T23:38:55.988Z,2.70
2018-08-05T23:41:24.768Z,2.97
2018-08-05T23:43:55.093Z,2.67
2018-08-05T23:46:25.671Z,2.90
2018-08-05T23:48:54.982Z,2.97
2018-08-05T23:51:24.858Z,3.20
2018-08-05T23:53:54.884Z,3.17
2018-08-05T23:56:23.638Z,3.90
2018-08-05T23:58:53.687Z,2.93
